Time;durP1;ratioP1;P1;durP2;ratioP2;P2;SDS_P1;SDS_P2;PMS_P1;PMS_P2;Temp;Humidity;BMP_temperature;BMP_pressure;BME280_temperature;BME280_humidity;BME280_pressure;Samples;Min_cycle;Max_cycle;Signal;HPM_P1;HPM_P2
2021/08/16 00:00:05;;;;;;;17.23;2.25;;;;;;;;;;4992851;28;20049;-55
2021/08/16 00:02:32;;;;;;;17.90;2.30;;;;;;;;;;4985821;28;20042;-58
2021/08/16 00:04:59;;;;;;;16.07;2.03;;;;;;;;;;4981832;28;20074;-56
2021/08/16 00:07:25;;;;;;;11.95;1.98;;;;;;;;;;4984959;28;20272;-57
2021/08/16 00:09:52;;;;;;;14.40;2.85;;;;;;;;;;4984805;28;20035;-57
2021/08/16 00:12:19;;;;;;;13.15;2.67;;;;;;;;;;5006105;28;20030;-57
2021/08/16 00:14:45;;;;;;;21.02;3.30;;;;;;;;;;5000204;28;20049;-57
2021/08/16 00:17:13;;;;;;;15.63;2.38;;;;;;;;;;5004858;28;20046;-57
2021/08/16 00:19:40;;;;;;;11.35;2.17;;;;;;;;;;4999536;28;20061;-57
2021/08/16 00:22:07;;;;;;;12.85;2.50;;;;;;;;;;4984076;28;20050;-56
2021/08/16 00:24:33;;;;;;;14.65;2.03;;;;;;;;;;4985553;28;20050;-56
2021/08/16 00:27:00;;;;;;;13.48;2.67;;;;;;;;;;4998249;28;20139;-56
2021/08/16 00:29:26;;;;;;;13.13;2.20;;;;;;;;;;5004622;28;20035;-56
2021/08/16 00:31:55;;;;;;;18.92;2.30;;;;;;;;;;4985499;28;20097;-55
2021/08/16 00:34:21;;;;;;;;;;;;;;;;;;4985387;28;20070;-56
2021/08/16 00:36:49;;;;;;;13.60;2.28;;;;;;;;;;4981326;28;19921;-56
2021/08/16 00:39:16;;;;;;;17.88;2.72;;;;;;;;;;4984069;28;20046;-56
2021/08/16 00:41:55;;;;;;;18.70;2.47;;;;;;;;;;4981910;28;20093;-57
2021/08/16 00:44:22;;;;;;;17.67;2.17;;;;;;;;;;4984940;28;20065;-56
2021/08/16 00:46:48;;;;;;;14.70;2.38;;;;;;;;;;4992279;28;20045;-56
2021/08/16 00:49:15;;;;;;;15.70;2.20;;;;;;;;;;4988878;28;20042;-57
2021/08/16 00:51:47;;;;;;;16.25;2.70;;;;;;;;;;4993394;28;20050;-56
2021/08/16 00:54:14;;;;;;;19.30;2.65;;;;;;;;;;4989335;28;20041;-56
2021/08/16 00:56:41;;;;;;;15.48;2.47;;;;;;;;;;4999744;28;20053;-56
2021/08/16 00:59:10;;;;;;;14.07;2.42;;;;;;;;;;5006587;28;20061;-56
2021/08/16 01:01:44;;;;;;;14.25;2.00;;;;;;;;;;4999789;28;20124;-57
2021/08/16 01:04:11;;;;;;;15.93;2.40;;;;;;;;;;5002018;28;20116;-57
2021/08/16 01:06:37;;;;;;;14.48;2.72;;;;;;;;;;4997082;28;20035;-57
2021/08/16 01:09:04;;;;;;;11.52;2.00;;;;;;;;;;4983939;28;20043;-56
2021/08/16 01:11:33;;;;;;;14.65;2.20;;;;;;;;;;4981610;28;20038;-57
2021/08/16 01:13:59;;;;;;;14.55;2.83;;;;;;;;;;4984266;28;20041;-56
2021/08/16 01:16:25;;;;;;;21.75;2.40;;;;;;;;;;4985467;28;20031;-56
2021/08/16 01:18:52;;;;;;;17.35;2.20;;;;;;;;;;4980396;28;20027;-58
2021/08/16 01:21:19;;;;;;;15.00;2.13;;;;;;;;;;4983813;28;20042;-54
2021/08/16 01:23:46;;;;;;;20.75;3.85;;;;;;;;;;4987948;28;20121;-56
2021/08/16 01:26:13;;;;;;;9.20;2.17;;;;;;;;;;4985779;28;20054;-56
2021/08/16 01:28:41;;;;;;;10.98;2.13;;;;;;;;;;4982715;28;20051;-57
2021/08/16 01:31:09;;;;;;;11.20;2.20;;;;;;;;;;4986985;28;20051;-56
2021/08/16 01:33:37;;;;;;;16.23;2.53;;;;;;;;;;4984120;28;20038;-56
2021/08/16 01:36:05;;;;;;;15.00;2.67;;;;;;;;;;4986126;28;20129;-57
2021/08/16 01:38:33;;;;;;;12.40;2.40;;;;;;;;;;4992507;28;20082;-56
2021/08/16 01:40:59;;;;;;;12.43;2.20;;;;;;;;;;5006453;28;20038;-56
2021/08/16 01:43:26;;;;;;;12.80;2.20;;;;;;;;;;5001776;28;20315;-56
2021/08/16 01:45:54;;;;;;;10.70;1.98;;;;;;;;;;5007728;28;20046;-57
2021/08/16 01:48:20;;;;;;;15.05;2.67;;;;;;;;;;4999473;28;20035;-56
2021/08/16 01:50:50;;;;;;;12.80;2.47;;;;;;;;;;4987815;28;20047;-56
2021/08/16 01:53:16;;;;;;;16.70;2.30;;;;;;;;;;4984037;28;20114;-57
2021/08/16 01:55:43;;;;;;;15.32;2.58;;;;;;;;;;4985810;28;20046;-56
2021/08/16 01:58:10;;;;;;;13.20;2.13;;;;;;;;;;4988034;28;20105;-55
2021/08/16 02:00:37;;;;;;;14.10;2.47;;;;;;;;;;4999508;28;20046;-55
2021/08/16 02:03:05;;;;;;;14.02;2.40;;;;;;;;;;5006925;28;20131;-56
2021/08/16 02:05:31;;;;;;;18.83;2.33;;;;;;;;;;5002892;28;20070;-56
2021/08/16 02:07:58;;;;;;;11.65;1.98;;;;;;;;;;5005499;28;20053;-56
2021/08/16 02:10:25;;;;;;;11.55;2.10;;;;;;;;;;4991616;28;20062;-57
2021/08/16 02:12:55;;;;;;;15.50;2.33;;;;;;;;;;4990451;28;20030;-57
2021/08/16 02:15:22;;;;;;;18.75;3.00;;;;;;;;;;4995185;28;20039;-56
2021/08/16 02:17:48;;;;;;;15.38;2.92;;;;;;;;;;5006804;28;20042;-57
2021/08/16 02:20:16;;;;;;;13.75;2.22;;;;;;;;;;4995707;28;20124;-57
2021/08/16 02:22:52;;;;;;;19.30;2.42;;;;;;;;;;4991313;28;20050;-54
2021/08/16 02:25:18;;;;;;;16.70;1.98;;;;;;;;;;4985364;28;20046;-56
2021/08/16 02:27:46;;;;;;;14.27;2.10;;;;;;;;;;4989902;28;20580;-57
2021/08/16 02:30:13;;;;;;;23.83;2.80;;;;;;;;;;4986503;28;20030;-57
2021/08/16 02:32:40;;;;;;;8.32;1.83;;;;;;;;;;4988981;28;20052;-56
2021/08/16 02:35:07;;;;;;;13.65;2.05;;;;;;;;;;4989971;28;20124;-57
2021/08/16 02:37:35;;;;;;;18.23;2.28;;;;;;;;;;5008581;28;20033;-57
2021/08/16 02:40:01;;;;;;;16.02;2.30;;;;;;;;;;5005482;28;20038;-57
2021/08/16 02:42:40;;;;;;;18.98;2.42;;;;;;;;;;5009106;28;20038;-57
2021/08/16 02:45:07;;;;;;;10.05;1.80;;;;;;;;;;5007162;28;20038;-56
2021/08/16 02:47:33;;;;;;;13.05;2.28;;;;;;;;;;5008303;28;20042;-57
2021/08/16 02:50:00;;;;;;;20.95;2.92;;;;;;;;;;5009090;28;20041;-57
2021/08/16 02:52:32;;;;;;;15.45;2.40;;;;;;;;;;4989175;28;20057;-56
2021/08/16 02:54:59;;;;;;;16.42;2.35;;;;;;;;;;4988557;28;20249;-57
2021/08/16 02:57:27;;;;;;;14.35;2.60;;;;;;;;;;4994973;28;20046;-55
2021/08/16 02:59:54;;;;;;;17.70;2.23;;;;;;;;;;4993799;28;20038;-57
2021/08/16 03:02:20;;;;;;;11.90;1.98;;;;;;;;;;4998103;28;20041;-56
2021/08/16 03:04:46;;;;;;;18.85;2.50;;;;;;;;;;5027877;28;20049;-55
2021/08/16 03:07:13;;;;;;;14.95;2.38;;;;;;;;;;5003537;28;20033;-57
2021/08/16 03:09:39;;;;;;;20.15;2.55;;;;;;;;;;5008845;28;20057;-56
2021/08/16 03:12:08;;;;;;;11.10;2.05;;;;;;;;;;4989213;28;20093;-57
2021/08/16 03:14:35;;;;;;;12.90;2.17;;;;;;;;;;5005271;28;20046;-57
2021/08/16 03:17:02;;;;;;;11.10;2.05;;;;;;;;;;4997585;28;20094;-57
2021/08/16 03:19:28;;;;;;;12.20;2.42;;;;;;;;;;4987729;28;20044;-56
2021/08/16 03:21:55;;;;;;;17.65;2.55;;;;;;;;;;4984188;28;20041;-57
2021/08/16 03:24:21;;;;;;;13.85;2.10;;;;;;;;;;4987826;28;20042;-57
2021/08/16 03:26:48;;;;;;;14.40;2.13;;;;;;;;;;4984552;28;20108;-56
2021/08/16 03:29:16;;;;;;;17.17;2.22;;;;;;;;;;4987694;28;20040;-57
2021/08/16 03:31:45;;;;;;;14.70;2.53;;;;;;;;;;4987176;28;20116;-56
2021/08/16 03:34:12;;;;;;;16.08;2.45;;;;;;;;;;5002067;28;20037;-56
2021/08/16 03:36:38;;;;;;;13.75;2.10;;;;;;;;;;5003736;28;20046;-57
2021/08/16 03:39:05;;;;;;;17.23;2.40;;;;;;;;;;4986863;28;20038;-56
2021/08/16 03:41:33;;;;;;;14.88;2.20;;;;;;;;;;4988714;28;20140;-56
2021/08/16 03:44:00;;;;;;;13.70;2.58;;;;;;;;;;4996924;28;20094;-56
2021/08/16 03:46:28;;;;;;;13.00;2.10;;;;;;;;;;5008375;28;20062;-57
2021/08/16 03:48:54;;;;;;;13.07;2.45;;;;;;;;;;4992688;28;20053;-56
2021/08/16 03:51:22;;;;;;;9.88;1.85;;;;;;;;;;4988098;28;20030;-56
2021/08/16 03:53:48;;;;;;;13.50;1.97;;;;;;;;;;4985863;28;20042;-57
2021/08/16 03:56:15;;;;;;;14.38;2.45;;;;;;;;;;5007479;28;20037;-56
2021/08/16 03:58:42;;;;;;;8.98;1.90;;;;;;;;;;4999792;28;20060;-56
2021/08/16 04:01:08;;;;;;;12.65;2.65;;;;;;;;;;4988273;28;20042;-56
2021/08/16 04:03:38;;;;;;;17.48;3.03;;;;;;;;;;4985312;28;20042;-57
2021/08/16 04:06:05;;;;;;;12.77;1.90;;;;;;;;;;4987060;28;20096;-57
2021/08/16 04:08:33;;;;;;;12.77;2.20;;;;;;;;;;4986525;28;20101;-56
2021/08/16 04:11:08;;;;;;;19.30;2.40;;;;;;;;;;4988790;28;20042;-56
2021/08/16 04:13:35;;;;;;;13.20;2.20;;;;;;;;;;4984621;28;20054;-57
2021/08/16 04:16:01;;;;;;;12.30;2.33;;;;;;;;;;4988045;28;20050;-57
2021/08/16 04:18:28;;;;;;;17.55;2.67;;;;;;;;;;5005847;28;20030;-55
2021/08/16 04:20:56;;;;;;;13.50;2.30;;;;;;;;;;4986862;28;20057;-56
2021/08/16 04:23:23;;;;;;;8.15;2.38;;;;;;;;;;4988869;28;20030;-56
2021/08/16 04:25:49;;;;;;;8.25;1.92;;;;;;;;;;4984108;28;20042;-57
2021/08/16 04:28:16;;;;;;;14.07;2.38;;;;;;;;;;4979765;28;20062;-57
2021/08/16 04:30:45;;;;;;;12.82;2.30;;;;;;;;;;4988116;28;20038;-57
2021/08/16 04:33:11;;;;;;;12.90;2.40;;;;;;;;;;4994105;28;20034;-57
2021/08/16 04:35:38;;;;;;;11.85;2.78;;;;;;;;;;4987787;28;20065;-56
2021/08/16 04:38:07;;;;;;;15.85;2.53;;;;;;;;;;5004777;28;20027;-56
2021/08/16 04:40:33;;;;;;;14.05;2.30;;;;;;;;;;4991080;28;20041;-56
2021/08/16 04:43:01;;;;;;;11.77;2.22;;;;;;;;;;5006811;28;20050;-56
2021/08/16 04:45:27;;;;;;;15.10;3.55;;;;;;;;;;5002998;28;20048;-56
2021/08/16 04:47:54;;;;;;;18.33;3.08;;;;;;;;;;5007852;28;20038;-56
2021/08/16 04:50:20;;;;;;;13.15;2.67;;;;;;;;;;4993560;28;20046;-56
2021/08/16 04:52:47;;;;;;;10.82;2.60;;;;;;;;;;5005128;28;20030;-56
2021/08/16 04:55:15;;;;;;;21.92;2.55;;;;;;;;;;5000260;28;20073;-57
2021/08/16 04:57:41;;;;;;;11.02;2.47;;;;;;;;;;5003883;28;20038;-56
2021/08/16 05:00:09;;;;;;;11.30;2.60;;;;;;;;;;5001062;28;20043;-54
2021/08/16 05:02:38;;;;;;;13.25;3.03;;;;;;;;;;4999943;28;20057;-56
2021/08/16 05:05:09;;;;;;;13.50;2.40;;;;;;;;;;5000024;28;20038;-57
2021/08/16 05:07:35;;;;;;;17.00;2.85;;;;;;;;;;4994032;28;20092;-54
2021/08/16 05:10:06;;;;;;;16.25;3.28;;;;;;;;;;5000812;28;20037;-57
2021/08/16 05:12:40;;;;;;;12.55;2.33;;;;;;;;;;5018399;28;20040;-56
2021/08/16 05:15:07;;;;;;;11.77;3.03;;;;;;;;;;5018638;28;20046;-55
2021/08/16 05:17:33;;;;;;;15.75;2.75;;;;;;;;;;4996960;28;20105;-56
2021/08/16 05:20:00;;;;;;;14.63;2.55;;;;;;;;;;5003758;28;20034;-56
2021/08/16 05:22:28;;;;;;;13.85;2.45;;;;;;;;;;4999892;28;20037;-56
2021/08/16 05:24:54;;;;;;;12.63;2.67;;;;;;;;;;4998979;28;20038;-57
2021/08/16 05:27:21;;;;;;;12.80;3.08;;;;;;;;;;4994273;28;20328;-57
2021/08/16 05:29:49;;;;;;;12.35;4.07;;;;;;;;;;5004032;28;20037;-56
2021/08/16 05:32:17;;;;;;;17.73;3.67;;;;;;;;;;4997656;28;20042;-56
2021/08/16 05:34:43;;;;;;;13.07;3.15;;;;;;;;;;5003552;28;20393;-57
2021/08/16 05:37:10;;;;;;;15.00;2.85;;;;;;;;;;4997427;28;20049;-57
2021/08/16 05:39:36;;;;;;;15.57;2.88;;;;;;;;;;4999139;28;20145;-57
2021/08/16 05:42:03;;;;;;;15.85;3.53;;;;;;;;;;4994479;28;20033;-51
2021/08/16 05:44:30;;;;;;;16.88;2.88;;;;;;;;;;5003664;28;20038;-55
2021/08/16 05:47:01;;;;;;;11.65;3.20;;;;;;;;;;5000340;28;20088;-57
2021/08/16 05:49:27;;;;;;;10.00;3.13;;;;;;;;;;4995306;28;20140;-55
2021/08/16 05:51:55;;;;;;;11.15;3.42;;;;;;;;;;5017756;28;20042;-56
2021/08/16 05:54:22;;;;;;;11.40;3.70;;;;;;;;;;4994093;28;20113;-56
2021/08/16 05:56:48;;;;;;;11.20;3.13;;;;;;;;;;4999330;28;20065;-53
2021/08/16 05:59:15;;;;;;;14.70;3.58;;;;;;;;;;4989114;28;20038;-57
2021/08/16 06:01:43;;;;;;;17.85;3.10;;;;;;;;;;4994505;28;20105;-56
2021/08/16 06:04:11;;;;;;;11.70;2.92;;;;;;;;;;4982405;28;20054;-56
2021/08/16 06:06:38;;;;;;;9.82;3.20;;;;;;;;;;5000406;28;20097;-54
2021/08/16 06:09:05;;;;;;;15.57;3.20;;;;;;;;;;4996226;28;20054;-56
2021/08/16 06:11:33;;;;;;;17.85;3.55;;;;;;;;;;4985952;28;20043;-57
2021/08/16 06:13:59;;;;;;;12.30;2.83;;;;;;;;;;4977499;28;20050;-56
2021/08/16 06:16:26;;;;;;;15.23;3.17;;;;;;;;;;4985951;28;20128;-56
2021/08/16 06:18:52;;;;;;;16.40;3.65;;;;;;;;;;4985837;28;20041;-56
2021/08/16 06:21:21;;;;;;;14.68;3.35;;;;;;;;;;5004510;28;20054;-55
2021/08/16 06:23:47;;;;;;;12.60;3.53;;;;;;;;;;4999404;28;20030;-55
2021/08/16 06:26:14;;;;;;;11.68;3.20;;;;;;;;;;4983964;28;20045;-55
2021/08/16 06:28:40;;;;;;;10.00;3.03;;;;;;;;;;4985859;28;20035;-52
2021/08/16 06:31:10;;;;;;;10.85;3.83;;;;;;;;;;4981890;28;20042;-53
2021/08/16 06:33:40;;;;;;;9.32;3.38;;;;;;;;;;4985051;28;20022;-56
2021/08/16 06:36:09;;;;;;;14.90;3.72;;;;;;;;;;4996435;28;20045;-53
2021/08/16 06:38:37;;;;;;;11.85;3.50;;;;;;;;;;4985433;28;20045;-54
2021/08/16 06:41:06;;;;;;;14.43;4.30;;;;;;;;;;4980207;28;20061;-54
2021/08/16 06:43:33;;;;;;;8.45;3.58;;;;;;;;;;4985649;28;20046;-54
2021/08/16 06:46:00;;;;;;;14.48;4.00;;;;;;;;;;4982365;28;20061;-54
2021/08/16 06:48:26;;;;;;;10.18;3.63;;;;;;;;;;4984970;28;20023;-54
2021/08/16 06:50:53;;;;;;;10.55;3.70;;;;;;;;;;4990380;28;20097;-55
2021/08/16 06:53:20;;;;;;;7.78;2.80;;;;;;;;;;5004714;28;20132;-54
2021/08/16 06:55:48;;;;;;;6.47;2.20;;;;;;;;;;4991208;28;20136;-54
2021/08/16 06:58:15;;;;;;;7.05;2.22;;;;;;;;;;5004905;28;20031;-52
2021/08/16 07:00:42;;;;;;;4.30;2.08;;;;;;;;;;4996255;28;20093;-55
2021/08/16 07:03:10;;;;;;;5.75;2.33;;;;;;;;;;4986511;28;20046;-55
2021/08/16 07:05:36;;;;;;;4.95;2.33;;;;;;;;;;5000026;28;20074;-52
2021/08/16 07:08:03;;;;;;;6.85;2.30;;;;;;;;;;4987578;28;20050;-55
2021/08/16 07:10:30;;;;;;;7.15;3.08;;;;;;;;;;5002853;28;20045;-53
2021/08/16 07:12:58;;;;;;;8.38;3.22;;;;;;;;;;5008815;28;20034;-54
2021/08/16 07:15:25;;;;;;;10.02;3.47;;;;;;;;;;4998275;28;20034;-54
2021/08/16 07:17:51;;;;;;;6.20;2.40;;;;;;;;;;5005413;28;20041;-52
2021/08/16 07:20:18;;;;;;;2.35;1.20;;;;;;;;;;5002303;28;20052;-53
2021/08/16 07:22:50;;;;;;;5.43;1.65;;;;;;;;;;5004242;28;20034;-53
2021/08/16 07:25:16;;;;;;;2.78;1.00;;;;;;;;;;5025537;28;20038;-54
2021/08/16 07:27:43;;;;;;;7.35;1.25;;;;;;;;;;4998836;28;20038;-52
2021/08/16 07:30:11;;;;;;;4.45;1.30;;;;;;;;;;5004332;28;20045;-52
2021/08/16 07:32:40;;;;;;;4.80;1.60;;;;;;;;;;4990769;28;20045;-50
2021/08/16 07:35:07;;;;;;;7.45;1.27;;;;;;;;;;5006826;28;20038;-48
2021/08/16 07:37:34;;;;;;;3.30;1.45;;;;;;;;;;4986991;28;20094;-47
2021/08/16 07:40:00;;;;;;;6.10;1.40;;;;;;;;;;4993743;28;20119;-52
2021/08/16 07:42:28;;;;;;;5.93;1.20;;;;;;;;;;5000446;28;20027;-52
2021/08/16 07:44:55;;;;;;;3.33;1.40;;;;;;;;;;5004466;28;20124;-52
2021/08/16 07:47:22;;;;;;;10.18;1.50;;;;;;;;;;5000091;28;20042;-54
2021/08/16 07:49:49;;;;;;;3.73;1.40;;;;;;;;;;4988130;28;20092;-53
2021/08/16 07:52:15;;;;;;;10.80;2.15;;;;;;;;;;4987144;28;20260;-54
2021/08/16 07:54:42;;;;;;;5.30;1.80;;;;;;;;;;4987474;28;20054;-53
2021/08/16 07:57:09;;;;;;;5.05;1.60;;;;;;;;;;4987289;28;20030;-51
2021/08/16 07:59:35;;;;;;;5.82;1.45;;;;;;;;;;5022212;28;20078;-52
2021/08/16 08:02:02;;;;;;;6.03;1.80;;;;;;;;;;5007273;28;20033;-53
2021/08/16 08:04:30;;;;;;;6.63;1.58;;;;;;;;;;4989369;28;20030;-54
2021/08/16 08:06:56;;;;;;;4.97;1.50;;;;;;;;;;4988678;28;20034;-52
2021/08/16 08:09:23;;;;;;;5.55;1.40;;;;;;;;;;4984925;28;20050;-54
2021/08/16 08:11:58;;;;;;;4.68;1.40;;;;;;;;;;5006494;28;20049;-52
2021/08/16 08:14:25;;;;;;;6.70;1.58;;;;;;;;;;4990248;28;20053;-52
2021/08/16 08:16:51;;;;;;;6.53;1.40;;;;;;;;;;4987328;28;20057;-53
2021/08/16 08:19:18;;;;;;;2.42;1.15;;;;;;;;;;4984225;28;20067;-53
2021/08/16 08:21:48;;;;;;;6.90;1.38;;;;;;;;;;4986865;28;20053;-51
2021/08/16 08:24:14;;;;;;;8.18;1.85;;;;;;;;;;4983412;28;20022;-52
2021/08/16 08:26:40;;;;;;;6.30;1.45;;;;;;;;;;4988861;28;20053;-51
2021/08/16 08:29:07;;;;;;;7.85;1.52;;;;;;;;;;4984770;28;20046;-52
2021/08/16 08:31:35;;;;;;;5.63;1.30;;;;;;;;;;4989015;28;20124;-53
2021/08/16 08:34:01;;;;;;;8.02;1.60;;;;;;;;;;4984746;28;20041;-52
2021/08/16 08:36:27;;;;;;;5.57;1.60;;;;;;;;;;4988859;28;20034;-53
2021/08/16 08:38:55;;;;;;;4.80;1.27;;;;;;;;;;4985313;28;20044;-53
2021/08/16 08:41:23;;;;;;;5.50;1.40;;;;;;;;;;4988341;28;20085;-53
2021/08/16 08:43:50;;;;;;;4.97;1.48;;;;;;;;;;4988472;28;20039;-53
2021/08/16 08:46:19;;;;;;;5.25;1.67;;;;;;;;;;4962736;28;20035;-49
2021/08/16 08:48:45;;;;;;;7.53;1.58;;;;;;;;;;4987909;28;20034;-53
2021/08/16 08:51:22;;;;;;;11.32;2.35;;;;;;;;;;4983047;28;20042;-52
2021/08/16 08:53:49;;;;;;;10.45;3.00;;;;;;;;;;4989512;28;20038;-53
2021/08/16 08:56:19;;;;;;;8.07;1.90;;;;;;;;;;4989259;28;20038;-50
2021/08/16 08:58:46;;;;;;;6.10;1.90;;;;;;;;;;4988121;28;20071;-51
2021/08/16 09:01:15;;;;;;;3.33;1.48;;;;;;;;;;4990848;28;20038;-53
2021/08/16 09:03:48;;;;;;;5.80;1.63;;;;;;;;;;5002064;28;20046;-53
2021/08/16 09:06:16;;;;;;;5.57;1.63;;;;;;;;;;4993208;28;20069;-51
2021/08/16 09:08:43;;;;;;;4.78;1.80;;;;;;;;;;5003241;28;20030;-52
2021/08/16 09:11:14;;;;;;;6.15;1.65;;;;;;;;;;4997116;28;20042;-53
2021/08/16 09:13:50;;;;;;;5.78;1.83;;;;;;;;;;5007166;28;20030;-48
2021/08/16 09:16:16;;;;;;;7.28;1.45;;;;;;;;;;4999117;28;20037;-51
2021/08/16 09:18:43;;;;;;;9.02;1.83;;;;;;;;;;5017171;28;20060;-51
2021/08/16 09:21:11;;;;;;;10.25;2.13;;;;;;;;;;5010100;28;20120;-51
2021/08/16 09:23:44;;;;;;;6.68;1.70;;;;;;;;;;4996098;28;20034;-52
2021/08/16 09:26:11;;;;;;;10.32;2.35;;;;;;;;;;5010247;28;20049;-51
2021/08/16 09:28:38;;;;;;;10.65;2.15;;;;;;;;;;5001963;28;20050;-53
2021/08/16 09:31:16;;;;;;;5.57;1.80;;;;;;;;;;4998359;28;20050;-51
2021/08/16 09:33:53;;;;;;;8.00;2.30;;;;;;;;;;4998739;28;20042;-50
2021/08/16 09:36:20;;;;;;;5.97;1.83;;;;;;;;;;4992027;28;20049;-54
2021/08/16 09:38:47;;;;;;;9.27;2.00;;;;;;;;;;4993278;28;20061;-52
2021/08/16 09:41:20;;;;;;;9.05;1.80;;;;;;;;;;5001155;28;20049;-53
2021/08/16 09:43:46;;;;;;;7.15;2.38;;;;;;;;;;5000100;28;20034;-54
2021/08/16 09:46:15;;;;;;;8.02;2.22;;;;;;;;;;4998995;28;20120;-53
2021/08/16 09:48:41;;;;;;;;;;;;;;;;;;4996649;28;20040;-52
2021/08/16 09:51:09;;;;;;;11.15;2.10;;;;;;;;;;5005781;28;19953;-52
2021/08/16 09:53:38;;;;;;;6.72;2.10;;;;;;;;;;5001053;28;20049;-51
2021/08/16 09:56:05;;;;;;;7.10;2.00;;;;;;;;;;5014620;28;20168;-54
2021/08/16 09:58:33;;;;;;;9.65;2.30;;;;;;;;;;5003020;28;20127;-54
2021/08/16 10:01:00;;;;;;;8.70;2.37;;;;;;;;;;5005906;28;20037;-51
2021/08/16 10:03:28;;;;;;;8.27;2.53;;;;;;;;;;4997525;28;20042;-52
2021/08/16 10:05:55;;;;;;;9.52;3.05;;;;;;;;;;5000387;28;20034;-53
2021/08/16 10:08:22;;;;;;;12.88;3.20;;;;;;;;;;5015183;28;20037;-52
2021/08/16 10:11:01;;;;;;;10.55;2.80;;;;;;;;;;5002493;28;20061;-52
2021/08/16 10:13:29;;;;;;;10.20;2.85;;;;;;;;;;4997239;28;20160;-53
2021/08/16 10:15:57;;;;;;;11.98;3.00;;;;;;;;;;5001420;28;20034;-53
2021/08/16 10:18:25;;;;;;;12.90;2.97;;;;;;;;;;5000936;28;20038;-54
2021/08/16 10:20:53;;;;;;;9.90;3.20;;;;;;;;;;5002904;28;20049;-54
2021/08/16 10:23:20;;;;;;;16.98;4.10;;;;;;;;;;4996092;28;20050;-53
2021/08/16 10:25:47;;;;;;;9.55;3.20;;;;;;;;;;5001967;28;20049;-54
2021/08/16 10:28:24;;;;;;;11.70;3.28;;;;;;;;;;5020278;28;20126;-52
2021/08/16 10:30:50;;;;;;;9.73;3.40;;;;;;;;;;5004391;28;20078;-50
2021/08/16 10:33:17;;;;;;;14.73;3.22;;;;;;;;;;5003161;28;20035;-51
2021/08/16 10:35:44;;;;;;;10.73;3.65;;;;;;;;;;5000351;28;20074;-50
2021/08/16 10:38:13;;;;;;;10.07;3.58;;;;;;;;;;5004400;28;20042;-50
2021/08/16 10:40:46;;;;;;;13.30;3.42;;;;;;;;;;5000146;28;20057;-54
2021/08/16 10:43:14;;;;;;;12.27;3.78;;;;;;;;;;5003856;28;20077;-53
2021/08/16 10:45:44;;;;;;;10.37;3.37;;;;;;;;;;5001922;28;20073;-50
2021/08/16 10:48:11;;;;;;;11.23;3.22;;;;;;;;;;5007317;28;20049;-54
2021/08/16 10:50:38;;;;;;;14.20;3.22;;;;;;;;;;5001657;28;20053;-54
2021/08/16 10:53:05;;;;;;;8.32;3.05;;;;;;;;;;5003420;28;20056;-55
2021/08/16 10:55:34;;;;;;;10.43;2.92;;;;;;;;;;4998166;28;20037;-55
2021/08/16 10:58:01;;;;;;;10.05;3.08;;;;;;;;;;5005130;28;20049;-54
2021/08/16 11:00:27;;;;;;;10.30;2.35;;;;;;;;;;4997232;28;20374;-53
2021/08/16 11:02:55;;;;;;;10.40;2.70;;;;;;;;;;5005374;28;20049;-53
2021/08/16 11:05:29;;;;;;;6.78;2.05;;;;;;;;;;4993749;28;20049;-52
2021/08/16 11:07:57;;;;;;;9.27;2.60;;;;;;;;;;4997551;28;20043;-53
2021/08/16 11:10:24;;;;;;;10.20;2.85;;;;;;;;;;4991299;28;20038;-55
2021/08/16 11:12:53;;;;;;;11.93;2.97;;;;;;;;;;4999275;28;20057;-53
2021/08/16 11:15:19;;;;;;;8.75;2.80;;;;;;;;;;4996241;28;20034;-56
2021/08/16 11:17:46;;;;;;;10.88;2.60;;;;;;;;;;5000745;28;20042;-51
2021/08/16 11:20:15;;;;;;;10.38;2.20;;;;;;;;;;5001271;28;20046;-54
2021/08/16 11:22:45;;;;;;;7.35;2.40;;;;;;;;;;5000061;28;20044;-53
2021/08/16 11:25:12;;;;;;;7.22;1.90;;;;;;;;;;4996743;28;20042;-54
2021/08/16 11:27:41;;;;;;;4.27;2.03;;;;;;;;;;4996107;28;20046;-50
2021/08/16 11:30:11;;;;;;;7.90;1.83;;;;;;;;;;4998797;28;20046;-53
2021/08/16 11:32:40;;;;;;;3.40;1.55;;;;;;;;;;4994738;28;20050;-53
2021/08/16 11:35:08;;;;;;;5.32;1.80;;;;;;;;;;4997956;28;20038;-53
2021/08/16 11:37:37;;;;;;;3.67;1.70;;;;;;;;;;4995226;28;20042;-51
2021/08/16 11:40:05;;;;;;;4.88;1.73;;;;;;;;;;4996207;28;20312;-53
2021/08/16 11:42:31;;;;;;;8.00;2.53;;;;;;;;;;4993725;28;20093;-54
2021/08/16 11:44:59;;;;;;;5.68;2.10;;;;;;;;;;5001480;28;20097;-53
2021/08/16 11:47:31;;;;;;;5.15;1.80;;;;;;;;;;4992706;28;20042;-52
2021/08/16 11:49:58;;;;;;;6.72;2.30;;;;;;;;;;4995963;28;20028;-52
2021/08/16 11:52:26;;;;;;;8.05;2.35;;;;;;;;;;4994651;28;20039;-54
2021/08/16 11:54:53;;;;;;;11.27;2.45;;;;;;;;;;4996374;28;20116;-53
2021/08/16 11:57:21;;;;;;;7.22;1.88;;;;;;;;;;4996949;28;20042;-54
2021/08/16 11:59:50;;;;;;;5.88;1.55;;;;;;;;;;5000181;28;20137;-54
2021/08/16 12:02:18;;;;;;;8.48;2.08;;;;;;;;;;4992463;28;20046;-53
2021/08/16 12:04:49;;;;;;;7.32;2.10;;;;;;;;;;4999299;28;20102;-50
2021/08/16 12:07:15;;;;;;;6.80;2.10;;;;;;;;;;4984883;28;20053;-52
2021/08/16 12:09:42;;;;;;;12.38;2.47;;;;;;;;;;4999916;28;20061;-50
2021/08/16 12:12:09;;;;;;;9.35;2.33;;;;;;;;;;4996025;28;20040;-54
2021/08/16 12:14:36;;;;;;;9.02;2.28;;;;;;;;;;4995687;28;20104;-52
2021/08/16 12:17:03;;;;;;;10.18;1.98;;;;;;;;;;5003263;28;20030;-54
2021/08/16 12:19:30;;;;;;;4.38;1.88;;;;;;;;;;4996865;28;20057;-54
2021/08/16 12:22:06;;;;;;;10.77;2.17;;;;;;;;;;4997605;28;20034;-53
2021/08/16 12:24:33;;;;;;;7.13;1.88;;;;;;;;;;4999277;28;20046;-53
2021/08/16 12:27:00;;;;;;;9.27;2.17;;;;;;;;;;5000400;28;20034;-53
2021/08/16 12:29:28;;;;;;;6.60;1.85;;;;;;;;;;4994347;28;20035;-53
2021/08/16 12:31:54;;;;;;;8.23;2.20;;;;;;;;;;4998697;28;20038;-53
2021/08/16 12:34:21;;;;;;;8.55;2.00;;;;;;;;;;4992316;28;20042;-53
2021/08/16 12:36:53;;;;;;;7.20;1.70;;;;;;;;;;4999093;28;20115;-51
2021/08/16 12:39:21;;;;;;;10.05;1.95;;;;;;;;;;4995093;28;20097;-51
2021/08/16 12:41:48;;;;;;;11.05;2.00;;;;;;;;;;4999034;28;20034;-54
2021/08/16 12:44:18;;;;;;;14.30;2.55;;;;;;;;;;4996620;28;20117;-54
2021/08/16 12:46:44;;;;;;;9.95;2.20;;;;;;;;;;5010888;28;20042;-54
2021/08/16 12:49:19;;;;;;;10.85;2.70;;;;;;;;;;4992675;28;20125;-54
2021/08/16 12:51:46;;;;;;;12.77;2.72;;;;;;;;;;4996777;28;20096;-54
2021/08/16 12:54:12;;;;;;;11.85;3.22;;;;;;;;;;4993872;28;20058;-55
2021/08/16 12:56:40;;;;;;;9.55;2.88;;;;;;;;;;4998409;28;20049;-53
2021/08/16 12:59:07;;;;;;;11.88;2.50;;;;;;;;;;4994202;28;20042;-54
2021/08/16 13:01:41;;;;;;;10.80;2.85;;;;;;;;;;4999003;28;20058;-53
2021/08/16 13:04:08;;;;;;;8.85;2.15;;;;;;;;;;4999281;28;20050;-52
2021/08/16 13:06:34;;;;;;;14.05;2.22;;;;;;;;;;4982319;28;20061;-54
2021/08/16 13:09:01;;;;;;;10.93;2.13;;;;;;;;;;5000814;28;20053;-53
2021/08/16 13:11:27;;;;;;;14.50;2.38;;;;;;;;;;4980625;28;20035;-54
2021/08/16 13:13:57;;;;;;;14.48;2.60;;;;;;;;;;4986329;28;20042;-54
2021/08/16 13:16:23;;;;;;;10.82;2.45;;;;;;;;;;4983626;28;20046;-51
2021/08/16 13:18:50;;;;;;;11.52;1.80;;;;;;;;;;4984623;28;20070;-54
2021/08/16 13:21:22;;;;;;;10.57;2.15;;;;;;;;;;4971083;28;20038;-53
2021/08/16 13:23:49;;;;;;;8.52;2.00;;;;;;;;;;4967305;28;20058;-55
2021/08/16 13:26:15;;;;;;;6.78;1.98;;;;;;;;;;4967926;28;20117;-54
2021/08/16 13:28:42;;;;;;;11.77;2.72;;;;;;;;;;4972352;28;20039;-54
2021/08/16 13:31:11;;;;;;;14.95;2.30;;;;;;;;;;4983779;28;20061;-54
2021/08/16 13:33:38;;;;;;;9.07;1.83;;;;;;;;;;4971144;28;20129;-55
2021/08/16 13:36:05;;;;;;;12.05;2.30;;;;;;;;;;4967164;28;20125;-51
2021/08/16 13:38:31;;;;;;;7.97;1.75;;;;;;;;;;4971464;28;20129;-52
2021/08/16 13:41:11;;;;;;;12.20;1.98;;;;;;;;;;4970735;28;20090;-52
2021/08/16 13:43:37;;;;;;;8.50;1.98;;;;;;;;;;4990134;28;20051;-51
2021/08/16 13:46:03;;;;;;;7.93;1.65;;;;;;;;;;5002790;28;20050;-54
2021/08/16 13:48:31;;;;;;;9.27;2.08;;;;;;;;;;4972023;28;20054;-54
2021/08/16 13:50:59;;;;;;;8.73;2.00;;;;;;;;;;4970351;28;20101;-51
2021/08/16 13:53:26;;;;;;;7.78;1.77;;;;;;;;;;4988711;28;20034;-54
2021/08/16 13:55:52;;;;;;;11.00;1.75;;;;;;;;;;4971258;28;20057;-48
2021/08/16 13:58:19;;;;;;;10.68;1.73;;;;;;;;;;4973734;28;20043;-52
2021/08/16 14:01:01;;;;;;;12.85;2.33;;;;;;;;;;4974309;28;20042;-52
2021/08/16 14:03:29;;;;;;;11.50;2.03;;;;;;;;;;4968620;28;20053;-54
2021/08/16 14:05:58;;;;;;;16.90;2.60;;;;;;;;;;5007487;28;20109;-53
2021/08/16 14:08:25;;;;;;;;;;;;;;;;;;4986002;28;20042;-51
2021/08/16 14:10:53;;;;;;;10.52;2.10;;;;;;;;;;4998582;28;19932;-54
2021/08/16 14:13:20;;;;;;;11.80;2.35;;;;;;;;;;4983353;28;20054;-54
2021/08/16 14:15:46;;;;;;;8.00;2.13;;;;;;;;;;4989330;28;20034;-54
2021/08/16 14:18:13;;;;;;;11.75;2.22;;;;;;;;;;4980780;28;20022;-53
2021/08/16 14:20:39;;;;;;;11.02;2.28;;;;;;;;;;4990613;28;20164;-50
2021/08/16 14:23:07;;;;;;;11.27;1.88;;;;;;;;;;4979357;28;20043;-54
2021/08/16 14:25:34;;;;;;;9.27;2.30;;;;;;;;;;4970816;28;20031;-53
2021/08/16 14:28:00;;;;;;;11.35;2.42;;;;;;;;;;4988944;28;20049;-53
2021/08/16 14:30:27;;;;;;;9.02;1.98;;;;;;;;;;4979410;28;20041;-53
2021/08/16 14:32:54;;;;;;;9.95;2.20;;;;;;;;;;4986630;28;20050;-53
2021/08/16 14:35:21;;;;;;;13.52;2.53;;;;;;;;;;4990277;28;20023;-55
2021/08/16 14:37:47;;;;;;;6.88;2.13;;;;;;;;;;4986450;28;20030;-55